Time;durP1;ratioP1;P1;durP2;ratioP2;P2;SDS_P1;SDS_P2;PMS_P1;PMS_P2;Temp;Humidity;BMP_temperature;BMP_pressure;BME280_temperature;BME280_humidity;BME280_pressure;Samples;Min_cycle;Max_cycle;Signal;HPM_P1;HPM_P2
2023/05/15 00:00:13;;;;;;;126.65;115.10;;;10.70;99.90;;;;;;4985989;28;20042;-73
2023/05/15 00:02:39;;;;;;;142.18;129.48;;;10.70;99.90;;;;;;4988044;28;20050;-73
2023/05/15 00:05:07;;;;;;;145.57;133.07;;;10.70;99.90;;;;;;4985491;28;20046;-73
2023/05/15 00:07:35;;;;;;;156.25;143.73;;;10.70;99.90;;;;;;4987179;28;20085;-73
2023/05/15 00:10:01;;;;;;;179.07;165.88;;;10.70;99.90;;;;;;4988673;28;20042;-73
2023/05/15 00:12:27;;;;;;;164.82;152.10;;;10.70;99.90;;;;;;4987951;28;20528;-73
2023/05/15 00:14:53;;;;;;;157.68;145.90;;;10.60;99.90;;;;;;4985245;28;20083;-73
2023/05/15 00:17:18;;;;;;;168.15;155.68;;;10.60;99.90;;;;;;4987733;28;20054;-73
2023/05/15 00:19:44;;;;;;;163.68;150.98;;;10.60;99.90;;;;;;4987241;28;20049;-73
2023/05/15 00:22:10;;;;;;;158.07;144.95;;;10.60;99.90;;;;;;4985462;28;20049;-73
2023/05/15 00:24:36;;;;;;;166.45;154.60;;;10.60;99.90;;;;;;5003570;28;20550;-73
2023/05/15 00:27:01;;;;;;;169.02;155.80;;;10.60;99.90;;;;;;4989721;28;20043;-73
2023/05/15 00:29:27;;;;;;;166.82;154.02;;;10.60;99.90;;;;;;4985949;28;20049;-73
2023/05/15 00:31:53;;;;;;;159.63;147.02;;;10.60;99.90;;;;;;4987164;28;20521;-73
2023/05/15 00:34:18;;;;;;;156.85;144.32;;;10.70;99.90;;;;;;4986752;28;20524;-73
2023/05/15 00:36:44;;;;;;;157.32;145.10;;;10.60;99.90;;;;;;4985433;28;20076;-73
2023/05/15 00:39:10;;;;;;;134.10;123.22;;;10.60;99.90;;;;;;4987386;28;20049;-73
2023/05/15 00:41:37;;;;;;;151.02;138.27;;;10.60;99.90;;;;;;4985147;28;20053;-73
2023/05/15 00:44:03;;;;;;;165.65;152.43;;;10.60;99.90;;;;;;4987528;28;20124;-73
2023/05/15 00:46:31;;;;;;;153.80;141.73;;;10.60;99.90;;;;;;4986301;28;20085;-74
2023/05/15 00:48:57;;;;;;;146.10;134.05;;;10.50;99.90;;;;;;4986471;28;20030;-73
2023/05/15 00:51:23;;;;;;;148.70;136.10;;;10.50;99.90;;;;;;4987498;28;20042;-73
2023/05/15 00:53:51;;;;;;;142.40;130.70;;;10.50;99.90;;;;;;4986295;28;20184;-73
2023/05/15 00:56:17;;;;;;;132.68;121.90;;;10.50;99.90;;;;;;4986409;28;20046;-73
2023/05/15 00:58:45;;;;;;;134.95;123.63;;;10.50;99.90;;;;;;4986045;28;20046;-73
2023/05/15 01:01:12;;;;;;;139.20;126.97;;;10.50;99.90;;;;;;4966713;28;20126;-73
2023/05/15 01:03:38;;;;;;;134.48;122.57;;;10.40;99.90;;;;;;4970967;28;20065;-73
2023/05/15 01:06:04;;;;;;;163.95;150.82;;;10.40;99.90;;;;;;4970078;28;20490;-74
2023/05/15 01:08:42;;;;;;;170.02;154.95;;;10.40;99.90;;;;;;4981983;28;20557;-73
2023/05/15 01:11:10;;;;;;;165.45;151.73;;;10.40;99.90;;;;;;4969331;28;20364;-73
2023/05/15 01:13:36;;;;;;;164.77;150.23;;;10.30;99.90;;;;;;4986167;28;20085;-73
2023/05/15 01:16:01;;;;;;;156.40;143.18;;;10.30;99.90;;;;;;4986570;28;20090;-73
2023/05/15 01:18:31;;;;;;;163.00;149.48;;;10.30;99.90;;;;;;4986607;28;20038;-73
2023/05/15 01:21:15;;;;;;;166.30;152.55;;;10.30;99.90;;;;;;4986441;28;20077;-73
2023/05/15 01:23:58;;;;;;;155.20;142.68;;;10.30;99.90;;;;;;4985277;28;20538;-73
2023/05/15 01:26:39;;;;;;;151.07;138.70;;;10.30;99.90;;;;;;4988534;28;20478;-73
2023/05/15 01:29:17;;;;;;;143.70;131.30;;;10.30;99.90;;;;;;4986637;28;20042;-74
2023/05/15 01:31:49;;;;;;;158.90;145.30;;;10.30;99.90;;;;;;4966448;28;20429;-73
2023/05/15 01:34:18;;;;;;;133.18;121.88;;;10.20;99.90;;;;;;4981824;28;20065;-73
2023/05/15 01:37:03;;;;;;;137.18;125.50;;;10.20;99.90;;;;;;4988656;28;20046;-73
2023/05/15 01:39:32;;;;;;;151.00;138.68;;;10.20;99.90;;;;;;4985445;28;20140;-73
2023/05/15 01:42:08;;;;;;;120.80;109.38;;;10.20;99.90;;;;;;4969767;28;20049;-73
2023/05/15 01:44:37;;;;;;;109.07;97.90;;;10.20;99.90;;;;;;4985540;28;20046;-73
2023/05/15 01:47:11;;;;;;;120.28;109.65;;;10.10;99.90;;;;;;4986283;28;20034;-73
2023/05/15 01:49:38;;;;;;;120.28;109.15;;;10.10;99.90;;;;;;4966130;28;20384;-73
2023/05/15 01:52:18;;;;;;;119.70;108.68;;;10.10;99.90;;;;;;4984523;28;20066;-73
2023/05/15 01:54:45;;;;;;;113.72;103.05;;;10.10;99.90;;;;;;4986465;28;20053;-73
2023/05/15 01:57:12;;;;;;;110.13;99.68;;;10.10;99.90;;;;;;4981883;28;20057;-73
2023/05/15 01:59:38;;;;;;;94.68;85.60;;;10.10;99.90;;;;;;4985950;28;20164;-73
2023/05/15 02:02:04;;;;;;;87.45;78.03;;;10.10;99.90;;;;;;4983734;28;20051;-73
2023/05/15 02:04:31;;;;;;;91.30;80.78;;;10.10;99.90;;;;;;4985130;28;20038;-73
2023/05/15 02:07:00;;;;;;;86.43;77.38;;;10.10;99.90;;;;;;4980985;28;20049;-73
2023/05/15 02:09:26;;;;;;;93.57;73.15;;;10.10;99.90;;;;;;4979061;28;20053;-73
2023/05/15 02:11:53;;;;;;;82.10;70.25;;;10.10;99.90;;;;;;4981567;28;20109;-73
2023/05/15 02:14:20;;;;;;;117.57;79.32;;;10.00;99.90;;;;;;4984663;28;20101;-73
2023/05/15 02:16:45;;;;;;;124.97;87.30;;;9.90;99.90;;;;;;4982172;28;20041;-73
2023/05/15 02:19:11;;;;;;;90.30;78.43;;;9.90;99.90;;;;;;4985875;28;20038;-73
2023/05/15 02:21:37;;;;;;;96.53;78.57;;;9.80;99.90;;;;;;4983059;28;20035;-73
2023/05/15 02:24:02;;;;;;;91.97;82.22;;;9.70;99.90;;;;;;4985947;28;20030;-73
2023/05/15 02:26:50;;;;;;;103.25;84.00;;;9.70;99.90;;;;;;4992923;28;20046;-73
2023/05/15 02:29:26;;;;;;;101.72;84.35;;;9.70;99.90;;;;;;4984725;28;20034;-73
2023/05/15 02:32:05;;;;;;;100.80;87.75;;;9.60;99.90;;;;;;4983264;28;20158;-73
2023/05/15 02:34:43;;;;;;;119.80;107.63;;;9.60;99.90;;;;;;4984174;28;20045;-73
2023/05/15 02:37:13;;;;;;;105.65;94.95;;;9.60;99.90;;;;;;4992188;28;20050;-73
2023/05/15 02:39:42;;;;;;;123.00;110.72;;;9.60;99.90;;;;;;4969180;28;20123;-73
2023/05/15 02:42:10;;;;;;;98.10;89.05;;;9.60;99.90;;;;;;4985713;28;20057;-73
2023/05/15 02:44:36;;;;;;;85.70;76.38;;;9.60;99.90;;;;;;4986601;28;20449;-73
2023/05/15 02:47:04;;;;;;;92.57;82.47;;;9.60;99.90;;;;;;4984508;28;20394;-74
2023/05/15 02:49:29;;;;;;;95.28;86.10;;;9.50;99.90;;;;;;4985199;28;20038;-73
2023/05/15 02:51:55;;;;;;;93.53;83.93;;;9.40;99.90;;;;;;4982133;28;20048;-73
2023/05/15 02:54:21;;;;;;;112.60;100.70;;;9.40;99.90;;;;;;4988336;28;20422;-73
2023/05/15 02:56:46;;;;;;;136.88;125.53;;;9.40;99.90;;;;;;4966873;28;20039;-73
2023/05/15 02:59:17;;;;;;;142.23;129.77;;;9.40;99.90;;;;;;4988913;28;20556;-73
2023/05/15 03:01:43;;;;;;;148.30;134.55;;;9.40;99.90;;;;;;4988509;28;20046;-73
2023/05/15 03:04:08;;;;;;;143.77;131.13;;;9.40;99.90;;;;;;4989348;28;20046;-73
2023/05/15 03:06:34;;;;;;;133.90;120.97;;;9.40;99.90;;;;;;4989356;28;20506;-73
2023/05/15 03:09:00;;;;;;;135.20;122.75;;;9.40;99.90;;;;;;4989709;28;20042;-73
2023/05/15 03:11:25;;;;;;;114.15;102.10;;;9.40;99.90;;;;;;4988333;28;20083;-73
2023/05/15 03:13:51;;;;;;;138.00;125.75;;;9.50;99.90;;;;;;4988554;28;20068;-73
2023/05/15 03:16:16;;;;;;;136.27;123.68;;;9.40;99.90;;;;;;4972298;28;20098;-73
2023/05/15 03:18:42;;;;;;;136.27;123.68;;;9.50;99.90;;;;;;4988035;28;20042;-73
2023/05/15 03:21:08;;;;;;;133.32;120.95;;;9.40;99.90;;;;;;4971850;28;20116;-73
2023/05/15 03:23:33;;;;;;;126.65;114.82;;;9.40;99.90;;;;;;4987439;28;20483;-74
2023/05/15 03:25:59;;;;;;;139.82;127.65;;;9.40;99.90;;;;;;4983145;28;20038;-73
2023/05/15 03:28:25;;;;;;;123.88;113.15;;;9.40;99.90;;;;;;4989076;28;20394;-73
2023/05/15 03:30:50;;;;;;;123.70;113.47;;;9.40;99.90;;;;;;4971149;28;20038;-72
2023/05/15 03:33:16;;;;;;;118.57;109.05;;;9.40;99.90;;;;;;4989230;28;20120;-73
2023/05/15 03:35:43;;;;;;;123.70;114.30;;;9.40;99.90;;;;;;4971895;28;20049;-73
2023/05/15 03:38:09;;;;;;;117.82;108.60;;;9.30;99.90;;;;;;4991362;28;20096;-73
2023/05/15 03:40:36;;;;;;;128.90;119.15;;;9.30;99.90;;;;;;4988272;28;20042;-73
2023/05/15 03:43:02;;;;;;;115.65;107.15;;;9.40;99.90;;;;;;4987653;28;20046;-73
2023/05/15 03:45:28;;;;;;;119.93;111.20;;;9.40;99.90;;;;;;4970591;28;20092;-73
2023/05/15 03:47:53;;;;;;;122.95;113.97;;;9.40;99.90;;;;;;4981648;28;20478;-73
2023/05/15 03:50:19;;;;;;;126.10;116.97;;;9.40;99.90;;;;;;4988445;28;20038;-73
2023/05/15 03:52:44;;;;;;;122.10;113.40;;;9.40;99.90;;;;;;4988445;28;20046;-73
2023/05/15 03:55:10;;;;;;;120.72;112.00;;;9.40;99.90;;;;;;4986620;28;20073;-73
2023/05/15 03:57:36;;;;;;;121.20;112.63;;;9.50;99.90;;;;;;4988433;28;20512;-73
2023/05/15 04:00:06;;;;;;;110.10;102.03;;;9.50;99.90;;;;;;4985955;28;21012;-73
2023/05/15 04:02:31;;;;;;;110.68;102.65;;;9.60;99.90;;;;;;4981833;28;20454;-73
2023/05/15 04:04:57;;;;;;;101.35;94.07;;;9.60;99.90;;;;;;4987928;28;20085;-73
2023/05/15 04:07:22;;;;;;;97.18;89.95;;;9.60;99.90;;;;;;4987756;28;20053;-73
2023/05/15 04:09:48;;;;;;;84.25;77.63;;;9.70;99.90;;;;;;4988702;28;20053;-73
2023/05/15 04:12:14;;;;;;;78.35;72.05;;;9.60;99.90;;;;;;4987299;28;20038;-73
2023/05/15 04:14:39;;;;;;;76.32;70.40;;;9.60;99.90;;;;;;4972130;28;20148;-73
2023/05/15 04:17:05;;;;;;;79.07;72.63;;;9.60;99.90;;;;;;4987108;28;20120;-73
2023/05/15 04:19:30;;;;;;;77.68;71.30;;;9.60;99.90;;;;;;4988584;28;20050;-73
2023/05/15 04:21:56;;;;;;;71.63;65.20;;;9.60;99.90;;;;;;4987323;28;20050;-73
2023/05/15 04:24:22;;;;;;;80.82;74.25;;;9.60;99.90;;;;;;4988628;28;20046;-73
2023/05/15 04:26:47;;;;;;;85.25;78.88;;;9.60;99.90;;;;;;4983092;28;20447;-73
2023/05/15 04:29:13;;;;;;;90.60;84.20;;;9.60;99.90;;;;;;4985893;28;20045;-73
2023/05/15 04:31:39;;;;;;;82.53;76.18;;;9.70;99.90;;;;;;4987067;28;20042;-73
2023/05/15 04:34:04;;;;;;;77.65;71.13;;;9.70;99.90;;;;;;4987225;28;20375;-73
2023/05/15 04:36:31;;;;;;;78.13;71.65;;;9.80;99.90;;;;;;4987129;28;20506;-73
2023/05/15 04:38:56;;;;;;;77.88;71.72;;;9.90;99.90;;;;;;4987368;28;20077;-74
2023/05/15 04:41:22;;;;;;;80.13;74.07;;;9.90;99.90;;;;;;4987589;28;20117;-73
2023/05/15 04:43:47;;;;;;;76.50;70.57;;;10.00;99.90;;;;;;4986894;28;20125;-73
2023/05/15 04:46:13;;;;;;;76.30;70.07;;;10.10;99.90;;;;;;4986818;28;20042;-73
2023/05/15 04:48:39;;;;;;;70.57;64.32;;;10.20;99.90;;;;;;4986537;28;20447;-73
2023/05/15 04:51:04;;;;;;;68.65;63.05;;;10.20;99.90;;;;;;4985482;28;20034;-73
2023/05/15 04:53:30;;;;;;;75.10;69.47;;;10.30;99.90;;;;;;4986658;28;20042;-73
2023/05/15 04:55:55;;;;;;;75.75;69.90;;;10.40;99.90;;;;;;4986499;28;20117;-73
2023/05/15 04:58:21;;;;;;;77.95;72.32;;;10.40;99.90;;;;;;4982179;28;20160;-73
2023/05/15 05:00:47;;;;;;;93.68;87.38;;;10.50;99.90;;;;;;4970373;28;20502;-72
2023/05/15 05:03:12;;;;;;;82.22;76.68;;;10.60;99.90;;;;;;4987393;28;20038;-73
2023/05/15 05:05:38;;;;;;;93.53;87.25;;;10.60;99.90;;;;;;4987213;28;20065;-73
2023/05/15 05:08:04;;;;;;;78.13;72.65;;;10.70;99.90;;;;;;4986122;28;20049;-73
2023/05/15 05:10:29;;;;;;;73.35;67.97;;;10.70;99.90;;;;;;4983339;28;20436;-73
2023/05/15 05:12:55;;;;;;;74.55;69.55;;;10.70;99.90;;;;;;4986420;28;20159;-73
2023/05/15 05:15:20;;;;;;;67.97;62.83;;;10.80;99.90;;;;;;4983777;28;20053;-74
2023/05/15 05:17:46;;;;;;;61.80;56.95;;;10.90;99.90;;;;;;4985292;28;20039;-73
2023/05/15 05:20:12;;;;;;;66.15;60.92;;;10.90;99.90;;;;;;4980534;28;20122;-73
2023/05/15 05:22:39;;;;;;;62.70;57.58;;;11.00;99.90;;;;;;4984540;28;20046;-73
2023/05/15 05:25:05;;;;;;;64.68;59.70;;;11.00;99.90;;;;;;4983557;28;20042;-73
2023/05/15 05:27:31;;;;;;;66.18;61.17;;;11.00;99.90;;;;;;4985491;28;20050;-73
2023/05/15 05:29:56;;;;;;;61.10;56.25;;;11.10;99.90;;;;;;4985750;28;20061;-73
2023/05/15 05:32:22;;;;;;;63.67;58.78;;;11.40;99.90;;;;;;4987668;28;20054;-73
2023/05/15 05:34:47;;;;;;;52.35;48.03;;;12.00;99.90;;;;;;4987355;28;20041;-73
2023/05/15 05:37:13;;;;;;;47.00;42.80;;;12.80;99.90;;;;;;4986003;28;20097;-73
2023/05/15 05:39:39;;;;;;;50.78;46.55;;;13.60;99.90;;;;;;4987511;28;20034;-73
2023/05/15 05:42:04;;;;;;;50.13;45.72;;;13.90;99.90;;;;;;4985613;28;20042;-73
2023/05/15 05:44:30;;;;;;;49.70;45.67;;;14.10;99.90;;;;;;4986139;28;20046;-73
2023/05/15 05:46:56;;;;;;;49.38;45.38;;;13.90;99.90;;;;;;4967001;28;20035;-73
2023/05/15 05:49:21;;;;;;;49.90;45.75;;;13.90;99.90;;;;;;4985167;28;20104;-73
2023/05/15 05:51:47;;;;;;;49.50;45.25;;;13.70;99.90;;;;;;4984872;28;20046;-73
2023/05/15 05:54:13;;;;;;;51.33;46.83;;;13.40;99.90;;;;;;4969883;28;20406;-73
2023/05/15 05:56:40;;;;;;;50.85;46.55;;;13.30;99.90;;;;;;4986423;28;20463;-73
2023/05/15 05:59:07;;;;;;;49.90;45.50;;;13.20;99.90;;;;;;4970402;28;20042;-73
2023/05/15 06:01:32;;;;;;;52.65;48.35;;;13.20;99.90;;;;;;4982306;28;20047;-73
2023/05/15 06:03:58;;;;;;;60.17;55.47;;;13.00;99.90;;;;;;4986948;28;20549;-73
2023/05/15 06:06:24;;;;;;;63.83;58.88;;;13.00;99.90;;;;;;4986472;28;20042;-73
2023/05/15 06:08:49;;;;;;;59.22;54.47;;;12.90;99.90;;;;;;4978228;28;20144;-74
2023/05/15 06:11:15;;;;;;;59.03;54.45;;;12.70;99.90;;;;;;4984481;28;20049;-73
2023/05/15 06:13:40;;;;;;;73.20;68.30;;;12.70;99.90;;;;;;4985502;28;20049;-73
2023/05/15 06:16:06;;;;;;;81.88;76.68;;;12.70;99.90;;;;;;4984172;28;20054;-73
2023/05/15 06:18:32;;;;;;;57.25;52.65;;;12.60;99.90;;;;;;4985859;28;20039;-74
2023/05/15 06:20:59;;;;;;;55.17;50.40;;;12.70;99.90;;;;;;4986764;28;20046;-73
2023/05/15 06:23:25;;;;;;;81.65;76.45;;;12.70;99.90;;;;;;4976165;28;20050;-74
2023/05/15 06:25:51;;;;;;;58.05;53.53;;;12.60;99.90;;;;;;4982719;28;20035;-73
2023/05/15 06:28:16;;;;;;;51.88;47.53;;;12.50;99.90;;;;;;4987647;28;20085;-74
2023/05/15 06:30:42;;;;;;;55.88;51.72;;;13.10;99.90;;;;;;4990375;28;20050;-74
2023/05/15 06:33:08;;;;;;;52.25;48.28;;;14.00;99.90;;;;;;4987566;28;20043;-73
2023/05/15 06:35:33;;;;;;;60.22;56.00;;;14.10;99.90;;;;;;4986513;28;20042;-73
2023/05/15 06:37:59;;;;;;;105.40;99.00;;;14.10;99.90;;;;;;4993016;28;20046;-73
2023/05/15 06:40:24;;;;;;;156.63;148.50;;;13.90;99.90;;;;;;4987112;28;20541;-73
2023/05/15 06:42:50;;;;;;;161.32;153.05;;;13.70;99.90;;;;;;4990061;28;20471;-72
2023/05/15 06:45:16;;;;;;;123.78;117.07;;;13.60;99.90;;;;;;4989391;28;20044;-73
2023/05/15 06:47:41;;;;;;;176.50;167.60;;;13.40;99.90;;;;;;4989732;28;20967;-74
2023/05/15 06:50:07;;;;;;;163.45;155.13;;;13.30;99.90;;;;;;4989186;28;20104;-72
2023/05/15 06:52:33;;;;;;;149.02;141.60;;;13.20;99.90;;;;;;4989382;28;20129;-73
2023/05/15 06:54:58;;;;;;;174.15;165.40;;;13.00;99.90;;;;;;4981891;28;20129;-73
2023/05/15 06:57:25;;;;;;;133.98;126.95;;;13.00;99.90;;;;;;4984805;28;20046;-73
2023/05/15 06:59:50;;;;;;;145.75;138.35;;;13.40;99.90;;;;;;4973344;28;20498;-73
2023/05/15 07:02:16;;;;;;;143.73;136.30;;;13.80;99.90;;;;;;4972994;28;20109;-73
2023/05/15 07:04:42;;;;;;;142.05;134.55;;;13.80;99.90;;;;;;4979876;28;20046;-73
2023/05/15 07:07:07;;;;;;;102.22;96.63;;;13.90;99.90;;;;;;4989890;28;20486;-74
2023/05/15 07:09:34;;;;;;;114.03;107.88;;;13.90;99.90;;;;;;4973432;28;20078;-74
2023/05/15 07:11:59;;;;;;;112.85;106.63;;;13.80;99.90;;;;;;4989345;28;20053;-73
2023/05/15 07:14:25;;;;;;;76.25;71.93;;;13.70;99.90;;;;;;4988796;28;20046;-73
2023/05/15 07:16:51;;;;;;;86.63;81.55;;;13.70;99.90;;;;;;5005110;28;20041;-73
2023/05/15 07:19:20;;;;;;;61.92;58.13;;;14.50;99.90;;;;;;4988487;28;20418;-73
2023/05/15 07:21:46;;;;;;;81.70;77.15;;;14.80;99.90;;;;;;4990203;28;20148;-73
2023/05/15 07:24:11;;;;;;;75.40;71.32;;;14.80;99.90;;;;;;4988344;28;20126;-74
2023/05/15 07:26:37;;;;;;;61.00;57.33;;;15.00;99.90;;;;;;4984993;28;20419;-73
2023/05/15 07:29:02;;;;;;;46.35;43.42;;;15.30;99.90;;;;;;4979405;28;20034;-74
2023/05/15 07:31:30;;;;;;;39.40;36.55;;;15.60;99.90;;;;;;4987931;28;20105;-73
2023/05/15 07:33:55;;;;;;;51.85;47.10;;;15.80;99.90;;;;;;4969600;28;20077;-73
2023/05/15 07:36:21;;;;;;;38.55;35.95;;;16.00;99.90;;;;;;4986851;28;20467;-74
2023/05/15 07:38:47;;;;;;;44.58;41.55;;;16.00;99.90;;;;;;4969447;28;20085;-74
2023/05/15 07:41:12;;;;;;;39.78;37.08;;;15.70;99.90;;;;;;4972092;28;20391;-74
2023/05/15 07:43:38;;;;;;;39.17;36.28;;;15.70;99.90;;;;;;4983100;28;20074;-74
2023/05/15 07:46:04;;;;;;;44.40;41.33;;;15.70;99.90;;;;;;4969681;28;20388;-75
2023/05/15 07:48:29;;;;;;;38.42;35.60;;;15.80;99.90;;;;;;4988397;28;20046;-74
2023/05/15 07:50:55;;;;;;;38.33;35.72;;;15.80;99.90;;;;;;4970435;28;20401;-74
2023/05/15 07:53:21;;;;;;;60.83;57.17;;;15.80;99.90;;;;;;4963356;28;20046;-74
2023/05/15 07:55:47;;;;;;;53.15;50.00;;;15.50;99.90;;;;;;4984676;28;20057;-74
2023/05/15 07:58:13;;;;;;;37.95;35.25;;;15.30;99.90;;;;;;4984829;28;20069;-74
2023/05/15 08:00:39;;;;;;;38.53;35.75;;;15.10;99.90;;;;;;4982341;28;20038;-74
2023/05/15 08:03:05;;;;;;;39.13;36.33;;;15.00;99.90;;;;;;4986665;28;20054;-74
2023/05/15 08:05:30;;;;;;;35.28;32.90;;;15.00;99.90;;;;;;4988716;28;20046;-74
2023/05/15 08:07:56;;;;;;;35.80;33.30;;;15.00;99.90;;;;;;4983766;28;20491;-74
2023/05/15 08:10:22;;;;;;;36.15;33.60;;;15.00;99.90;;;;;;4986432;28;20046;-74
2023/05/15 08:12:49;;;;;;;38.75;36.00;;;15.00;99.90;;;;;;4987593;28;20041;-74
2023/05/15 08:15:15;;;;;;;42.08;38.97;;;15.10;99.90;;;;;;4985134;28;20509;-74
2023/05/15 08:17:40;;;;;;;38.42;35.63;;;15.10;99.90;;;;;;4981813;28;20046;-75
2023/05/15 08:20:07;;;;;;;60.15;56.58;;;15.10;99.90;;;;;;4970993;28;20816;-74
2023/05/15 08:22:32;;;;;;;43.90;41.00;;;15.30;99.90;;;;;;4984444;28;20042;-74
2023/05/15 08:25:08;;;;;;;45.88;43.00;;;15.50;99.90;;;;;;4983803;28;20041;-74
2023/05/15 08:27:33;;;;;;;34.47;31.77;;;15.80;99.90;;;;;;4984263;28;20096;-74
2023/05/15 08:29:59;;;;;;;55.47;52.03;;;16.10;99.90;;;;;;4971183;28;20495;-74
2023/05/15 08:32:26;;;;;;;42.80;40.00;;;16.40;99.90;;;;;;4986917;28;20038;-75
2023/05/15 08:34:51;;;;;;;73.57;69.57;;;16.80;99.90;;;;;;4971284;28;20383;-74
2023/05/15 08:37:17;;;;;;;36.60;34.08;;;17.10;99.90;;;;;;4990899;28;20050;-74
2023/05/15 08:39:42;;;;;;;35.00;32.50;;;17.50;99.90;;;;;;4987445;28;20061;-75
2023/05/15 08:42:23;;;;;;;64.43;60.85;;;18.00;99.90;;;;;;4986453;28;20038;-74
2023/05/15 08:44:49;;;;;;;75.65;71.65;;;18.30;99.90;;;;;;4986009;28;20172;-74
2023/05/15 08:47:15;;;;;;;87.43;82.80;;;18.60;99.90;;;;;;4977236;28;20445;-75
2023/05/15 08:50:03;;;;;;;84.10;79.70;;;18.60;99.90;;;;;;4970893;28;20092;-74
2023/05/15 08:52:30;;;;;;;54.72;51.42;;;18.50;99.90;;;;;;4985003;28;20044;-74
2023/05/15 08:54:58;;;;;;;94.55;89.55;;;18.70;99.90;;;;;;4986991;28;20092;-75
2023/05/15 08:57:24;;;;;;;96.50;91.70;;;19.10;99.90;;;;;;4987025;28;20043;-74
2023/05/15 08:59:51;;;;;;;60.40;57.10;;;19.20;99.90;;;;;;4987269;28;20042;-74
2023/05/15 09:02:18;;;;;;;78.90;74.93;;;19.30;99.90;;;;;;4986673;28;20058;-73
2023/05/15 09:04:44;;;;;;;102.05;97.20;;;19.40;99.90;;;;;;4975540;28;20050;-74
2023/05/15 09:07:10;;;;;;;67.88;64.18;;;19.30;99.90;;;;;;4967188;28;20047;-74
2023/05/15 09:09:36;;;;;;;87.90;83.43;;;19.60;99.90;;;;;;4979048;28;20046;-74
2023/05/15 09:12:03;;;;;;;32.10;29.80;;;19.80;99.90;;;;;;4986709;28;20449;-74
2023/05/15 09:14:28;;;;;;;45.17;42.38;;;19.70;99.90;;;;;;4986838;28;20042;-75
2023/05/15 09:16:54;;;;;;;55.03;51.72;;;19.70;99.90;;;;;;4968935;28;20108;-74
2023/05/15 09:19:21;;;;;;;48.35;45.45;;;19.60;99.90;;;;;;4986767;28;20046;-75
2023/05/15 09:21:47;;;;;;;49.95;47.05;;;19.60;99.90;;;;;;4977156;28;20042;-74
2023/05/15 09:24:24;;;;;;;58.42;55.03;;;19.60;99.90;;;;;;4986557;28;20041;-74
2023/05/15 09:27:09;;;;;;;35.13;32.78;;;19.50;99.90;;;;;;4985548;28;20043;-74
2023/05/15 09:29:37;;;;;;;38.65;36.15;;;19.60;99.90;;;;;;5003221;28;20038;-74
2023/05/15 09:32:05;;;;;;;50.15;46.90;;;19.70;99.90;;;;;;4986489;28;20407;-75
2023/05/15 09:34:32;;;;;;;37.90;35.22;;;19.50;99.90;;;;;;4984136;28;20145;-74
2023/05/15 09:37:00;;;;;;;28.70;26.60;;;19.70;99.90;;;;;;4990003;28;20037;-75
2023/05/15 09:39:26;;;;;;;50.65;47.72;;;19.70;99.90;;;;;;4976625;28;20038;-75
2023/05/15 09:41:53;;;;;;;36.35;33.58;;;19.80;99.90;;;;;;4986576;28;20034;-74
2023/05/15 09:44:25;;;;;;;26.27;23.90;;;19.90;99.90;;;;;;4985520;28;20578;-72
2023/05/15 09:46:51;;;;;;;33.22;30.70;;;19.90;99.90;;;;;;4984447;28;20042;-72
2023/05/15 09:49:18;;;;;;;31.90;29.65;;;19.70;99.90;;;;;;4986364;28;20513;-73
2023/05/15 09:51:47;;;;;;;33.97;31.50;;;19.60;99.90;;;;;;4985318;28;20104;-72
2023/05/15 09:54:17;;;;;;;36.65;34.15;;;19.40;99.90;;;;;;4976063;28;20396;-73
2023/05/15 09:56:46;;;;;;;29.20;26.73;;;19.30;99.90;;;;;;4985823;28;20392;-73
2023/05/15 09:59:14;;;;;;;29.13;26.48;;;19.20;99.90;;;;;;4986575;28;20054;-73
2023/05/15 10:01:43;;;;;;;30.92;28.63;;;19.10;99.90;;;;;;4983641;28;20069;-72
2023/05/15 10:04:08;;;;;;;35.40;32.63;;;19.00;99.90;;;;;;4985609;28;20646;-73
2023/05/15 10:06:46;;;;;;;33.03;30.45;;;19.00;99.90;;;;;;4982267;28;20074;-73
2023/05/15 10:09:13;;;;;;;32.53;29.83;;;19.00;99.90;;;;;;4985686;28;20050;-73
2023/05/15 10:11:42;;;;;;;32.58;30.17;;;19.00;99.90;;;;;;4974236;28;20403;-73
2023/05/15 10:14:10;;;;;;;32.92;30.55;;;19.10;99.90;;;;;;4987083;28;20372;-72
2023/05/15 10:16:37;;;;;;;32.58;30.33;;;19.10;99.90;;;;;;4986545;28;20078;-73
2023/05/15 10:19:07;;;;;;;36.08;33.50;;;19.00;99.90;;;;;;4985792;28;20041;-72
2023/05/15 10:21:36;;;;;;;34.88;32.55;;;18.90;99.90;;;;;;4986900;28;20088;-73
2023/05/15 10:24:03;;;;;;;32.83;30.45;;;18.90;99.90;;;;;;4986221;28;20569;-72
2023/05/15 10:26:37;;;;;;;33.20;30.80;;;18.90;99.90;;;;;;4991567;28;20188;-72
2023/05/15 10:29:11;;;;;;;55.22;51.95;;;19.20;99.90;;;;;;4971871;28;20101;-72
2023/05/15 10:31:38;;;;;;;41.22;38.53;;;19.30;99.90;;;;;;4994231;28;20117;-72
2023/05/15 10:34:04;;;;;;;44.60;41.88;;;19.00;99.90;;;;;;4982700;28;20065;-72
2023/05/15 10:36:36;;;;;;;39.92;37.38;;;18.70;99.90;;;;;;4983305;28;20555;-73
2023/05/15 10:39:04;;;;;;;47.13;44.17;;;18.70;99.90;;;;;;4961522;28;20050;-72
2023/05/15 10:41:34;;;;;;;42.17;39.35;;;18.90;99.90;;;;;;4961433;28;20428;-73
2023/05/15 10:44:00;;;;;;;39.53;36.97;;;19.30;99.90;;;;;;4982945;28;20462;-72
2023/05/15 10:46:28;;;;;;;36.05;33.60;;;19.50;99.90;;;;;;4979918;28;20049;-72
2023/05/15 10:48:54;;;;;;;38.67;36.08;;;19.40;99.90;;;;;;4980576;28;20046;-72
2023/05/15 10:51:35;;;;;;;37.28;34.70;;;19.40;99.90;;;;;;4977847;28;20444;-72
2023/05/15 10:54:02;;;;;;;30.10;27.92;;;19.20;99.90;;;;;;4981213;28;20045;-73
2023/05/15 10:56:33;;;;;;;33.95;31.40;;;19.00;99.90;;;;;;4981604;28;20078;-73
2023/05/15 10:59:06;;;;;;;47.38;44.38;;;18.80;99.90;;;;;;4971707;28;20042;-73
2023/05/15 11:01:34;;;;;;;33.90;31.73;;;18.70;99.90;;;;;;4972583;28;20058;-73
2023/05/15 11:04:08;;;;;;;42.28;39.58;;;18.70;99.90;;;;;;4980113;28;20042;-72
2023/05/15 11:06:34;;;;;;;;;;;18.60;99.90;;;;;;4979725;28;20426;-72
2023/05/15 11:09:23;;;;;;;38.42;35.60;;;18.60;99.90;;;;;;4981609;28;20008;-72
2023/05/15 11:11:54;;;;;;;40.97;38.28;;;18.50;99.90;;;;;;4979429;28;20065;-72
2023/05/15 11:14:20;;;;;;;37.72;35.30;;;18.50;99.90;;;;;;4982055;28;20061;-72
2023/05/15 11:16:52;;;;;;;31.23;28.80;;;18.70;99.90;;;;;;4979033;28;20509;-73
2023/05/15 11:19:21;;;;;;;36.38;33.97;;;18.80;99.90;;;;;;4984140;28;20042;-72
2023/05/15 11:21:47;;;;;;;30.70;28.27;;;19.00;99.90;;;;;;4983894;28;20108;-73
2023/05/15 11:24:12;;;;;;;43.45;40.63;;;18.90;99.90;;;;;;4967232;28;20458;-73
2023/05/15 11:26:41;;;;;;;37.28;34.42;;;18.80;99.90;;;;;;4968902;28;20085;-73
2023/05/15 11:29:17;;;;;;;33.13;30.55;;;18.90;99.90;;;;;;4985964;28;20046;-73
2023/05/15 11:31:43;;;;;;;35.63;33.10;;;18.90;99.90;;;;;;5002417;28;20050;-73
2023/05/15 11:34:09;;;;;;;44.78;41.75;;;18.90;99.90;;;;;;4984303;28;20461;-72
2023/05/15 11:36:38;;;;;;;34.13;31.63;;;18.90;99.90;;;;;;4987095;28;20380;-73
2023/05/15 11:39:10;;;;;;;42.83;39.92;;;18.80;99.90;;;;;;4974843;28;20045;-73
2023/05/15 11:41:36;;;;;;;34.47;31.88;;;19.00;99.90;;;;;;4975491;28;20074;-73
2023/05/15 11:44:02;;;;;;;34.13;31.63;;;19.20;99.90;;;;;;4982863;28;20503;-73
2023/05/15 11:46:29;;;;;;;29.60;27.40;;;19.30;99.90;;;;;;4988579;28;20117;-73
2023/05/15 11:48:55;;;;;;;30.45;28.25;;;19.40;99.90;;;;;;4988960;28;20120;-73
2023/05/15 11:51:23;;;;;;;39.05;36.58;;;19.20;99.90;;;;;;4978670;28;20494;-73
2023/05/15 11:53:51;;;;;;;34.35;32.15;;;19.00;99.90;;;;;;4989275;28;20038;-73
2023/05/15 11:56:22;;;;;;;38.42;36.03;;;19.00;99.90;;;;;;4986434;28;20046;-73
2023/05/15 11:58:55;;;;;;;27.15;24.95;;;19.00;99.90;;;;;;4971289;28;20038;-73
2023/05/15 12:01:21;;;;;;;22.87;21.00;;;19.00;99.90;;;;;;4988204;28;20473;-73
2023/05/15 12:03:48;;;;;;;25.10;23.13;;;19.00;99.90;;;;;;4988054;28;20049;-73
2023/05/15 12:06:14;;;;;;;23.92;22.08;;;19.20;99.90;;;;;;4981699;28;20092;-73
2023/05/15 12:08:41;;;;;;;33.83;31.67;;;19.50;99.90;;;;;;4985231;28;20462;-74
2023/05/15 12:11:06;;;;;;;40.92;38.40;;;19.20;99.90;;;;;;4987085;28;20137;-73
2023/05/15 12:13:33;;;;;;;32.65;30.25;;;19.30;99.90;;;;;;4985051;28;20471;-73
2023/05/15 12:16:00;;;;;;;34.50;32.28;;;19.30;99.90;;;;;;5003837;28;20553;-73
2023/05/15 12:18:26;;;;;;;32.60;30.40;;;19.20;99.90;;;;;;4986905;28;20042;-74
2023/05/15 12:20:53;;;;;;;31.67;29.58;;;19.20;99.90;;;;;;4985979;28;20446;-73
2023/05/15 12:23:22;;;;;;;31.88;29.77;;;19.30;99.90;;;;;;4988325;28;20066;-73